Bryan's Hourly Summary for Tuesday, July 10, 2018
Hour Temp
(f)
RH
(%)
Solar Rad.
(MJ/m2)
Rainfall
(in)
Wind
(mph)
7/10/2018 12:00 AM 74 95 0 0 0.05
7/10/2018 1:00 AM 74 95 0 0 0
7/10/2018 2:00 AM 73 95 0 0 0
7/10/2018 3:00 AM 73 95 0 0 0
7/10/2018 4:00 AM 72 96 0 0 0
7/10/2018 5:00 AM 72 96 0 0 0
7/10/2018 6:00 AM 72 96 0 0 0
7/10/2018 7:00 AM 72 96 0.02 0 0
7/10/2018 8:00 AM 73 96 0.35 0 0
7/10/2018 9:00 AM 76 91 1.09 0 0.33
7/10/2018 10:00 AM 78 81 1.66 0 3.39
7/10/2018 11:00 AM 80 72 2.37 0 4.52
7/10/2018 12:00 PM 83 62 2.71 0 2.88
7/10/2018 1:00 PM 85 58 3.26 0 3.99
7/10/2018 2:00 PM 87 53 3.02 0 3.79
7/10/2018 3:00 PM 88 48 3.32 0 4.45
7/10/2018 4:00 PM 90 45 2.9 0 4.21
7/10/2018 5:00 PM 90 45 2.09 0 4.48
7/10/2018 6:00 PM 91 44 1.95 0 5.71
7/10/2018 7:00 PM 90 44 1.12 0 4.82
7/10/2018 8:00 PM 89 48 0.39 0 2.35
7/10/2018 9:00 PM 85 56 0.01 0 0.6
7/10/2018 10:00 PM 83 63 0 0 0.17
7/10/2018 11:00 PM 82 63 0 0 1.06
Data Summary 80 72 26.26 0.00 1.95